Time;durP1;ratioP1;P1;durP2;ratioP2;P2;SDS_P1;SDS_P2;PMS_P1;PMS_P2;Temp;Humidity;BMP_temperature;BMP_pressure;BME280_temperature;BME280_humidity;BME280_pressure;Samples;Min_cycle;Max_cycle;Signal;HPM_P1;HPM_P2
2024/01/06 14:30:50;;;;;;;;;;;;;;;7.77;69.88;99110.91;1090514;46;2043;-78
2024/01/06 14:31:54;;;;;;;;;;;;;;;7.90;69.47;99113.22;1088056;47;1262;-80
2024/01/06 14:32:57;;;;;;;;;;;;;;;7.89;69.23;99113.34;1088004;54;1007;-80
2024/01/06 14:33:58;;;;;;;;;;;;;;;7.95;69.41;99116.25;1087989;47;1174;-79
2024/01/06 14:35:01;;;;;;;;;;;;;;;8.00;69.25;99114.97;1088153;46;875;-80
2024/01/06 14:36:03;;;;;;;;;;;;;;;8.00;69.25;99112.31;1088374;54;940;-81
2024/01/06 14:37:06;;;;;;;;;;;;;;;8.04;69.16;99116.31;1088417;54;879;-78
2024/01/06 14:38:07;;;;;;;;;;;;;;;8.12;68.91;99119.09;1088412;54;1083;-78
2024/01/06 14:39:08;;;;;;;;;;;;;;;8.08;68.87;99113.19;1088382;54;962;-79
2024/01/06 14:40:12;;;;;;;;;;;;;;;8.15;68.42;99118.75;1088407;54;1094;-79
2024/01/06 14:41:13;;;;;;;;;;;;;;;8.05;68.94;99118.00;1088103;47;1844;-79
2024/01/06 14:42:18;;;;;;;;;;;;;;;8.13;68.71;99120.72;1087368;54;1284;-78
2024/01/06 14:43:20;;;;;;;;;;;;;;;8.14;68.70;99121.59;1087722;47;874;-78
2024/01/06 14:44:27;;;;;;;;;;;;;;;8.17;68.64;99119.47;1087964;54;1330;-79
2024/01/06 14:45:27;;;;;;;;;;;;;;;8.22;68.40;99119.81;1088259;54;1092;-80
2024/01/06 14:46:31;;;;;;;;;;;;;;;8.20;68.67;99121.81;1087998;47;1149;-80
2024/01/06 14:47:35;;;;;;;;;;;;;;;8.20;68.65;99124.50;1088084;47;977;-79
2024/01/06 14:48:39;;;;;;;;;;;;;;;8.18;68.58;99129.13;1088014;47;870;-81
2024/01/06 14:49:41;;;;;;;;;;;;;;;8.22;68.78;99124.31;1088020;47;921;-80
2024/01/06 14:50:43;;;;;;;;;;;;;;;8.20;68.82;99123.63;1087863;54;1122;-79
2024/01/06 14:51:47;;;;;;;;;;;;;;;8.25;68.74;99129.34;1088042;54;1391;-80
2024/01/06 14:52:48;;;;;;;;;;;;;;;8.27;68.45;99133.53;1087439;47;1078;-77
2024/01/06 14:53:51;;;;;;;;;;;;;;;8.22;68.47;99130.47;1087582;54;1037;-79
2024/01/06 14:54:54;;;;;;;;;;;;;;;8.23;68.54;99132.16;1087402;54;1004;-78
2024/01/06 14:55:55;;;;;;;;;;;;;;;8.32;68.22;99130.41;1087691;47;1029;-80
2024/01/06 14:56:58;;;;;;;;;;;;;;;8.32;68.11;99126.91;1087914;54;820;-78
2024/01/06 14:57:59;;;;;;;;;;;;;;;8.27;68.07;99138.00;1088307;47;992;-79
2024/01/06 14:59:03;;;;;;;;;;;;;;;8.27;68.26;99136.19;1088083;54;1023;-78
2024/01/06 15:00:04;;;;;;;;;;;;;;;8.26;68.23;99131.03;1088013;54;1127;-79
2024/01/06 15:01:08;;;;;;;;;;;;;;;8.31;68.02;99134.06;1088067;47;1859;-79
2024/01/06 15:02:08;;;;;;;;;;;;;;;8.36;67.92;99144.25;1087809;47;1205;-79
2024/01/06 15:03:15;;;;;;;;;;;;;;;8.30;68.03;99143.03;1087930;47;958;-82
2024/01/06 15:04:20;;;;;;;;;;;;;;;8.33;67.96;99144.56;1088110;47;1015;-81
2024/01/06 15:05:28;;;;;;;;;;;;;;;8.37;67.94;99148.59;1087984;47;953;-81
2024/01/06 15:06:30;;;;;;;;;;;;;;;8.31;68.20;99143.88;1088206;54;946;-81
2024/01/06 15:07:36;;;;;;;;;;;;;;;8.30;68.38;99145.69;1088208;47;864;-79
2024/01/06 15:08:37;;;;;;;;;;;;;;;8.28;68.19;99145.84;1087810;54;984;-79
2024/01/06 15:09:43;;;;;;;;;;;;;;;8.21;68.57;99150.13;1088101;54;1086;-79
2024/01/06 15:10:44;;;;;;;;;;;;;;;8.21;68.67;99147.47;1088240;47;955;-80
2024/01/06 15:11:48;;;;;;;;;;;;;;;8.15;68.62;99155.22;1088140;47;1342;-78
2024/01/06 15:12:52;;;;;;;;;;;;;;;8.14;68.46;99151.69;1088145;47;1078;-81
2024/01/06 15:13:55;;;;;;;;;;;;;;;8.21;68.55;99152.78;1088205;54;950;-80
2024/01/06 15:14:57;;;;;;;;;;;;;;;8.10;68.63;99150.34;1087973;47;997;-79
2024/01/06 15:16:01;;;;;;;;;;;;;;;8.09;68.69;99161.97;1088077;47;962;-79
2024/01/06 15:17:03;;;;;;;;;;;;;;;8.19;68.66;99159.22;1087971;54;1092;-79
2024/01/06 15:18:08;;;;;;;;;;;;;;;8.11;68.73;99160.00;1087928;47;897;-80
2024/01/06 15:19:12;;;;;;;;;;;;;;;8.10;68.66;99158.31;1088033;54;922;-80
2024/01/06 15:20:15;;;;;;;;;;;;;;;8.19;68.61;99154.75;1088050;54;904;-80
2024/01/06 15:21:21;;;;;;;;;;;;;;;8.22;68.74;99159.75;1087933;54;1845;-79
2024/01/06 15:22:33;;;;;;;;;;;;;;;8.14;68.69;99167.66;1087821;47;1371;-79
2024/01/06 15:23:33;;;;;;;;;;;;;;;8.11;68.70;99165.31;1088344;54;1498;-80
2024/01/06 15:24:37;;;;;;;;;;;;;;;8.10;68.74;99163.66;1088149;47;1216;-77
2024/01/06 15:25:39;;;;;;;;;;;;;;;8.11;68.73;99166.16;1088644;54;1143;-78
2024/01/06 15:26:46;;;;;;;;;;;;;;;8.17;68.79;99159.38;1088561;47;1018;-77
2024/01/06 15:27:52;;;;;;;;;;;;;;;8.22;68.78;99159.75;1088510;47;918;-78
2024/01/06 15:28:58;;;;;;;;;;;;;;;8.28;68.39;99160.97;1088558;54;1073;-77
2024/01/06 15:30:01;;;;;;;;;;;;;;;8.33;68.37;99165.84;1088127;54;898;-79
2024/01/06 15:31:05;;;;;;;;;;;;;;;8.26;68.51;99162.97;1086697;54;1070;-77
2024/01/06 15:32:07;;;;;;;;;;;;;;;8.23;68.26;99164.09;1086932;47;1439;-77
2024/01/06 15:33:08;;;;;;;;;;;;;;;8.27;68.02;99173.47;1087880;54;1149;-79
2024/01/06 15:34:14;;;;;;;;;;;;;;;8.24;68.34;99165.78;1088053;47;1116;-76
2024/01/06 15:35:15;;;;;;;;;;;;;;;8.18;68.62;99166.38;1087556;54;1191;-77
2024/01/06 15:36:15;;;;;;;;;;;;;;;8.27;68.40;99165.47;1088308;54;1079;-79
2024/01/06 15:37:19;;;;;;;;;;;;;;;8.27;68.07;99173.47;1087622;47;1079;-77
2024/01/06 15:38:21;;;;;;;;;;;;;;;8.26;68.36;99166.47;1088068;54;995;-79
2024/01/06 15:39:25;;;;;;;;;;;;;;;8.25;68.51;99175.44;1088168;54;1063;-76
2024/01/06 15:40:25;;;;;;;;;;;;;;;8.17;68.76;99172.69;1088101;46;1024;-77
2024/01/06 15:41:29;;;;;;;;;;;;;;;8.30;68.29;99169.66;1087451;47;1854;-78
2024/01/06 15:42:31;;;;;;;;;;;;;;;8.27;68.61;99176.13;1088069;47;1166;-79
2024/01/06 15:43:37;;;;;;;;;;;;;;;8.32;68.55;99174.81;1088165;54;869;-77
2024/01/06 15:44:39;;;;;;;;;;;;;;;8.23;68.27;99182.75;1088173;47;916;-77
2024/01/06 15:45:42;;;;;;;;;;;;;;;8.24;68.32;99176.44;1088470;46;885;-76
2024/01/06 15:46:42;;;;;;;;;;;;;;;8.27;68.38;99176.13;1088201;47;916;-77
2024/01/06 15:47:46;;;;;;;;;;;;;;;8.27;68.09;99175.28;1087989;47;1083;-79
2024/01/06 15:48:48;;;;;;;;;;;;;;;8.30;68.14;99174.16;1088385;46;1150;-78
2024/01/06 15:50:02;;;;;;;;;;;;;;;8.24;68.05;99171.09;1087869;47;1003;-78
2024/01/06 15:51:04;;;;;;;;;;;;;;;8.27;67.91;99178.81;1088332;46;1036;-79
2024/01/06 15:52:08;;;;;;;;;;;;;;;8.25;68.40;99172.78;1088367;54;1409;-79
2024/01/06 15:53:09;;;;;;;;;;;;;;;8.20;68.31;99180.41;1088495;46;963;-80
2024/01/06 15:54:12;;;;;;;;;;;;;;;8.12;68.57;99180.31;1088350;47;1116;-80
2024/01/06 15:55:12;;;;;;;;;;;;;;;8.10;68.50;99177.78;1088164;47;1082;-78
2024/01/06 15:56:16;;;;;;;;;;;;;;;8.10;68.63;99174.28;1088090;46;1143;-78
2024/01/06 15:57:16;;;;;;;;;;;;;;;8.01;68.89;99181.34;1087926;54;1140;-79
2024/01/06 15:58:22;;;;;;;;;;;;;;;8.09;68.61;99181.44;1088311;47;930;-78
2024/01/06 15:59:23;;;;;;;;;;;;;;;8.10;68.43;99175.13;1087131;54;1135;-79
2024/01/06 16:00:27;;;;;;;;;;;;;;;8.12;68.61;99182.97;1087500;54;1172;-79
2024/01/06 16:01:27;;;;;;;;;;;;;;;8.10;68.58;99191.09;1088159;54;1895;-81
2024/01/06 16:02:31;;;;;;;;;;;;;;;8.06;68.42;99180.91;1088557;46;988;-79
2024/01/06 16:03:33;;;;;;;;;;;;;;;8.05;68.74;99179.22;1088476;54;1158;-78
2024/01/06 16:04:37;;;;;;;;;;;;;;;8.13;68.41;99184.63;1088272;50;987;-80
2024/01/06 16:05:43;;;;;;;;;;;;;;;8.18;68.16;99187.69;1088417;54;891;-80
2024/01/06 16:06:48;;;;;;;;;;;;;;;8.19;68.16;99184.03;1088278;46;1052;-80
2024/01/06 16:07:49;;;;;;;;;;;;;;;8.17;68.22;99188.69;1088111;54;1017;-78
2024/01/06 16:08:53;;;;;;;;;;;;;;;8.22;68.27;99189.06;1088164;47;952;-76
2024/01/06 16:09:54;;;;;;;;;;;;;;;8.25;68.15;99194.09;1087672;54;942;-79
2024/01/06 16:10:58;;;;;;;;;;;;;;;8.27;68.16;99188.59;1086849;47;1054;-78
2024/01/06 16:12:18;;;;;;;;;;;;;;;8.33;68.32;99181.84;1087991;47;1298;-79
2024/01/06 16:13:21;;;;;;;;;;;;;;;8.25;68.30;99190.59;1088264;54;909;-79
2024/01/06 16:14:23;;;;;;;;;;;;;;;8.21;68.50;99195.38;1088461;47;1071;-79
2024/01/06 16:15:27;;;;;;;;;;;;;;;8.24;68.63;99184.41;1088305;54;1012;-79
2024/01/06 16:16:30;;;;;;;;;;;;;;;8.24;68.42;99191.59;1088363;54;965;-76
2024/01/06 16:17:45;;;;;;;;;;;;;;;8.25;68.30;99194.09;1088214;47;959;-79
2024/01/06 16:18:47;;;;;;;;;;;;;;;8.24;68.58;99197.72;1088452;54;889;-80
2024/01/06 16:19:57;;;;;;;;;;;;;;;8.30;68.28;99185.66;1088832;54;1148;-80
2024/01/06 16:21:03;;;;;;;;;;;;;;;8.19;68.87;99184.03;1088549;54;1153;-81
2024/01/06 16:22:10;;;;;;;;;;;;;;;8.21;68.52;99190.06;1088239;47;1848;-77
2024/01/06 16:23:13;;;;;;;;;;;;;;;8.22;68.68;99189.06;1088499;54;1127;-78
2024/01/06 16:24:18;;;;;;;;;;;;;;;8.24;68.45;99184.41;1088498;47;1074;-80
2024/01/06 16:25:19;;;;;;;;;;;;;;;8.21;68.57;99187.41;1088453;47;1136;-80
2024/01/06 16:26:19;;;;;;;;;;;;;;;8.20;69.03;99179.53;1088471;54;1031;-79
2024/01/06 16:27:23;;;;;;;;;;;;;;;8.32;68.48;99182.81;1088178;47;1082;-80
2024/01/06 16:28:25;;;;;;;;;;;;;;;8.24;68.75;99184.41;1088288;46;1003;-79
2024/01/06 16:29:36;;;;;;;;;;;;;;;8.28;68.68;99182.28;1088174;46;938;-80
2024/01/06 16:30:36;;;;;;;;;;;;;;;8.27;68.63;99184.13;1088248;54;1066;-77
2024/01/06 16:31:40;;;;;;;;;;;;;;;8.20;68.71;99185.72;1087630;46;1351;-80
2024/01/06 16:32:41;;;;;;;;;;;;;;;8.27;68.69;99181.47;1088067;54;1033;-77
2024/01/06 16:33:44;;;;;;;;;;;;;;;8.24;68.70;99181.75;1087939;54;1082;-77
2024/01/06 16:34:47;;;;;;;;;;;;;;;8.19;69.02;99188.53;1088328;46;988;-79
2024/01/06 16:35:50;;;;;;;;;;;;;;;8.22;69.06;99186.38;1088120;47;1136;-77
2024/01/06 16:36:53;;;;;;;;;;;;;;;8.17;68.80;99186.00;1088048;46;938;-78
2024/01/06 16:37:57;;;;;;;;;;;;;;;8.15;68.88;99182.66;1088242;46;970;-79
2024/01/06 16:38:58;;;;;;;;;;;;;;;8.15;69.22;99182.66;1088325;54;1042;-81
2024/01/06 16:40:02;;;;;;;;;;;;;;;8.13;69.18;99184.63;1088241;54;992;-78
2024/01/06 16:41:03;;;;;;;;;;;;;;;8.11;69.15;99183.97;1088255;46;900;-81
2024/01/06 16:42:07;;;;;;;;;;;;;;;8.16;69.23;99192.31;1088179;54;1864;-78
2024/01/06 16:43:09;;;;;;;;;;;;;;;8.18;68.85;99187.69;1088147;54;943;-80
2024/01/06 16:44:12;;;;;;;;;;;;;;;8.15;69.14;99187.97;1088162;54;1075;-76
2024/01/06 16:45:13;;;;;;;;;;;;;;;8.14;69.33;99188.16;1088140;47;968;-76
2024/01/06 16:46:14;;;;;;;;;;;;;;;8.16;68.92;99195.00;1088143;47;907;-77
2024/01/06 16:47:17;;;;;;;;;;;;;;;8.12;69.11;99197.13;1088005;47;977;-79
2024/01/06 16:48:18;;;;;;;;;;;;;;;8.13;69.07;99195.28;1088068;54;1146;-76
2024/01/06 16:49:27;;;;;;;;;;;;;;;8.16;69.16;99189.66;1087976;54;1004;-77
2024/01/06 16:50:28;;;;;;;;;;;;;;;8.04;69.23;99190.84;1088454;54;935;-79
2024/01/06 16:51:31;;;;;;;;;;;;;;;8.07;69.23;99191.41;1088411;54;1390;-79
2024/01/06 16:52:36;;;;;;;;;;;;;;;8.07;69.47;99193.22;1088410;54;1152;-79
2024/01/06 16:53:37;;;;;;;;;;;;;;;8.03;69.54;99189.19;1088291;46;916;-76
2024/01/06 16:54:40;;;;;;;;;;;;;;;7.84;70.13;99193.63;1087970;54;983;-78
2024/01/06 16:55:41;;;;;;;;;;;;;;;7.82;70.10;99192.94;1088126;47;946;-79
2024/01/06 16:56:47;;;;;;;;;;;;;;;7.81;70.53;99192.09;1087995;54;1103;-76
2024/01/06 16:57:49;;;;;;;;;;;;;;;7.80;70.24;99190.41;1088170;47;1143;-79
2024/01/06 16:58:53;;;;;;;;;;;;;;;7.69;70.79;99195.09;1088102;54;1507;-78
2024/01/06 16:59:54;;;;;;;;;;;;;;;7.50;71.52;99202.19;1087926;54;1103;-78
2024/01/06 17:00:58;;;;;;;;;;;;;;;7.50;71.40;99199.53;1088004;46;1108;-80
2024/01/06 17:02:00;;;;;;;;;;;;;;;7.54;71.55;99206.25;1088071;54;1861;-79
2024/01/06 17:03:07;;;;;;;;;;;;;;;7.58;71.42;99206.78;1088039;54;1430;-76
2024/01/06 17:04:09;;;;;;;;;;;;;;;7.67;71.27;99194.41;1087993;47;1039;-76
2024/01/06 17:05:12;;;;;;;;;;;;;;;7.73;71.21;99201.81;1088029;47;882;-76
2024/01/06 17:06:13;;;;;;;;;;;;;;;7.77;71.26;99200.53;1088036;47;990;-79
2024/01/06 17:07:16;;;;;;;;;;;;;;;7.80;71.24;99197.56;1087979;47;1141;-81
2024/01/06 17:08:19;;;;;;;;;;;;;;;7.85;71.25;99195.28;1087878;47;979;-80
2024/01/06 17:09:25;;;;;;;;;;;;;;;7.85;71.09;99192.63;1087932;54;1114;-80
2024/01/06 17:10:26;;;;;;;;;;;;;;;7.94;71.16;99194.41;1087891;54;1027;-79
2024/01/06 17:11:29;;;;;;;;;;;;;;;7.99;70.96;99193.97;1087762;47;1346;-80
2024/01/06 17:12:30;;;;;;;;;;;;;;;7.91;71.02;99196.53;1088007;47;1008;-78
2024/01/06 17:13:33;;;;;;;;;;;;;;;7.90;71.08;99200.16;1087950;47;1091;-78
2024/01/06 17:14:35;;;;;;;;;;;;;;;7.85;70.78;99203.28;1087709;47;1054;-78
2024/01/06 17:15:38;;;;;;;;;;;;;;;7.85;71.01;99197.13;1087713;47;904;-79
2024/01/06 17:16:38;;;;;;;;;;;;;;;7.89;70.84;99199.34;1086564;47;1056;-78
2024/01/06 17:17:44;;;;;;;;;;;;;;;7.92;70.74;99198.22;1087764;54;1406;-77
2024/01/06 17:18:45;;;;;;;;;;;;;;;7.94;70.74;99205.06;1087829;54;1076;-76
2024/01/06 17:19:49;;;;;;;;;;;;;;;7.90;70.79;99201.03;1088043;54;965;-78
2024/01/06 17:20:52;;;;;;;;;;;;;;;7.91;71.01;99204.50;1088007;54;1084;-78
2024/01/06 17:21:55;;;;;;;;;;;;;;;7.88;71.23;99200.34;1086872;54;1881;-77
2024/01/06 17:22:56;;;;;;;;;;;;;;;7.88;71.04;99203.00;1087243;54;1127;-79
2024/01/06 17:24:02;;;;;;;;;;;;;;;7.90;71.06;99205.50;1087622;54;1123;-79
2024/01/06 17:25:03;;;;;;;;;;;;;;;7.90;71.13;99201.03;1087244;46;1044;-78
2024/01/06 17:26:07;;;;;;;;;;;;;;;7.87;71.29;99214.63;1086365;47;1186;-78
2024/01/06 17:27:08;;;;;;;;;;;;;;;7.81;71.47;99208.06;1086925;54;947;-79
2024/01/06 17:28:11;;;;;;;;;;;;;;;7.84;71.33;99216.75;1086861;47;1079;-80
2024/01/06 17:29:12;;;;;;;;;;;;;;;7.82;71.30;99211.56;1086961;54;1170;-78
2024/01/06 17:30:18;;;;;;;;;;;;;;;7.78;71.52;99215.50;1087395;47;1103;-77
2024/01/06 17:31:19;;;;;;;;;;;;;;;7.80;71.48;99230.34;1087370;54;1101;-76
2024/01/06 17:32:24;;;;;;;;;;;;;;;7.81;71.38;99212.56;1087477;54;1397;-78
2024/01/06 17:33:24;;;;;;;;;;;;;;;7.78;71.73;99224.34;1086994;54;1023;-79
2024/01/06 17:34:27;;;;;;;;;;;;;;;7.77;71.66;99220.00;1087780;54;1129;-78
2024/01/06 17:35:31;;;;;;;;;;;;;;;7.73;71.79;99226.59;1087898;47;1068;-78
2024/01/06 17:36:34;;;;;;;;;;;;;;;7.74;71.71;99230.94;1087743;54;1023;-78
2024/01/06 17:37:35;;;;;;;;;;;;;;;7.80;71.53;99233.00;1088028;47;1019;-80
2024/01/06 17:38:40;;;;;;;;;;;;;;;7.80;72.02;99226.84;1088190;47;1013;-80
2024/01/06 17:39:43;;;;;;;;;;;;;;;7.86;71.52;99226.25;1088335;46;1008;-78
2024/01/06 17:40:48;;;;;;;;;;;;;;;7.89;71.56;99228.63;1088194;47;1035;-83
2024/01/06 17:41:49;;;;;;;;;;;;;;;7.92;71.29;99225.69;1087929;47;1863;-79
2024/01/06 17:42:53;;;;;;;;;;;;;;;7.92;71.58;99225.69;1088162;47;1136;-81
2024/01/06 17:43:57;;;;;;;;;;;;;;;7.92;71.43;99227.47;1088724;46;1032;-78
2024/01/06 17:46:29;;;;;;;;;;;;;;;7.88;71.67;99226.13;1088235;46;1051;-82
2024/01/06 17:47:56;;;;;;;;;;;;;;;7.87;71.71;99221.78;1088319;54;1060;-82
2024/01/06 17:49:03;;;;;;;;;;;;;;;7.78;71.89;99232.31;1088159;47;977;-81
2024/01/06 17:50:04;;;;;;;;;;;;;;;7.86;71.85;99220.09;1088046;47;1531;-78
2024/01/06 17:51:08;;;;;;;;;;;;;;;7.79;72.21;99225.16;1088286;54;1054;-78
2024/01/06 17:52:50;;;;;;;;;;;;;;;7.82;71.93;99230.19;1088262;54;1548;-78
2024/01/06 17:53:53;;;;;;;;;;;;;;;7.87;71.97;99222.59;1088140;54;1021;-78
2024/01/06 17:54:57;;;;;;;;;;;;;;;7.94;71.67;99234.31;1088375;54;1013;-80
2024/01/06 17:57:34;;;;;;;;;;;;;;;7.92;71.75;99235.47;1088412;47;895;-81
2024/01/06 18:01:10;;;;;;;;;;;;;;;8.02;71.17;99240.75;1087943;54;1938;-84
2024/01/06 18:02:11;;;;;;;;;;;;;;;8.05;71.16;99245.75;1088437;54;1853;-82
2024/01/06 18:03:15;;;;;;;;;;;;;;;7.92;71.42;99246.97;1088645;54;966;-82
2024/01/06 18:04:19;;;;;;;;;;;;;;;7.85;71.57;99245.84;1088264;47;854;-81
2024/01/06 18:11:47;;;;;;;;;;;;;;;7.95;71.30;99238.66;1088104;54;1250;-79
2024/01/06 18:12:48;;;;;;;;;;;;;;;7.85;71.67;99240.53;1088643;54;933;-80
2024/01/06 18:13:51;;;;;;;;;;;;;;;7.84;71.65;99238.03;1088263;47;1088;-79
2024/01/06 18:14:52;;;;;;;;;;;;;;;7.87;71.58;99243.06;1088226;46;985;-77
2024/01/06 18:15:55;;;;;;;;;;;;;;;7.91;71.51;99239.97;1088217;54;965;-77
2024/01/06 18:16:58;;;;;;;;;;;;;;;7.95;71.48;99233.34;1088278;47;993;-79
2024/01/06 18:18:02;;;;;;;;;;;;;;;7.93;71.29;99237.16;1088161;54;1098;-78
2024/01/06 18:19:03;;;;;;;;;;;;;;;7.97;71.35;99243.88;1088311;54;957;-78
2024/01/06 18:20:05;;;;;;;;;;;;;;;7.97;71.44;99238.53;1088759;46;972;-81
2024/01/06 18:21:08;;;;;;;;;;;;;;;7.96;71.26;99240.34;1088208;47;876;-80
2024/01/06 18:22:11;;;;;;;;;;;;;;;7.99;71.49;99236.53;1088303;47;1848;-77
2024/01/06 18:23:14;;;;;;;;;;;;;;;8.04;71.30;99238.75;1088321;54;1003;-81
2024/01/06 18:24:21;;;;;;;;;;;;;;;7.97;71.24;99238.53;1088305;47;991;-80
2024/01/06 18:25:30;;;;;;;;;;;;;;;8.00;71.26;99237.41;1088419;46;912;-78
2024/01/06 18:26:31;;;;;;;;;;;;;;;8.06;71.14;99242.13;1088234;47;1000;-79
2024/01/06 18:27:35;;;;;;;;;;;;;;;8.01;71.61;99242.56;1088198;47;1093;-80
2024/01/06 18:28:42;;;;;;;;;;;;;;;7.99;71.62;99241.03;1088438;46;1139;-78
2024/01/06 18:29:43;;;;;;;;;;;;;;;7.93;71.49;99248.66;1088494;47;1014;-81
2024/01/06 18:30:52;;;;;;;;;;;;;;;7.97;71.71;99242.03;1088206;47;991;-78
2024/01/06 18:31:56;;;;;;;;;;;;;;;8.04;71.37;99239.63;1088062;54;1376;-77
2024/01/06 18:33:00;;;;;;;;;;;;;;;8.05;71.46;99241.31;1088156;46;974;-80
2024/01/06 18:34:00;;;;;;;;;;;;;;;8.06;71.33;99244.78;1087981;47;977;-77
2024/01/06 18:35:10;;;;;;;;;;;;;;;8.01;71.15;99241.75;1088026;47;1004;-79
2024/01/06 18:36:11;;;;;;;;;;;;;;;8.03;71.14;99237.94;1088024;54;915;-77
2024/01/06 18:39:27;;;;;;;;;;;;;;;7.92;71.47;99252.28;1087843;54;1193;-80
2024/01/06 18:41:42;;;;;;;;;;;;;;;7.94;71.78;99247.63;1088403;54;1276;-81
2024/01/06 18:42:45;;;;;;;;;;;;;;;7.89;71.90;99247.25;1088430;54;1844;-80
2024/01/06 18:43:48;;;;;;;;;;;;;;;7.92;71.97;99246.13;1088075;47;949;-79
2024/01/06 18:44:50;;;;;;;;;;;;;;;7.91;71.75;99245.28;1088092;46;995;-77
2024/01/06 18:45:55;;;;;;;;;;;;;;;7.96;71.66;99237.69;1088489;47;965;-79
2024/01/06 18:46:55;;;;;;;;;;;;;;;8.02;71.66;99240.75;1088613;47;1231;-82
2024/01/06 18:48:14;;;;;;;;;;;;;;;7.92;71.63;99246.97;1088040;47;884;-77
2024/01/06 18:49:17;;;;;;;;;;;;;;;7.96;71.65;99251.00;1088020;54;1010;-81
2024/01/06 18:50:36;;;;;;;;;;;;;;;8.02;71.36;99251.41;1088117;47;965;-78
2024/01/06 18:51:38;;;;;;;;;;;;;;;8.00;71.54;99245.38;1087983;54;1281;-79
2024/01/06 18:52:45;;;;;;;;;;;;;;;8.01;71.36;99241.75;1088015;54;1006;-79
2024/01/06 18:57:13;;;;;;;;;;;;;;;7.95;71.55;99241.34;1087827;54;1184;-81
2024/01/06 18:58:18;;;;;;;;;;;;;;;7.97;71.49;99238.53;1088317;54;865;-80
2024/01/06 18:59:23;;;;;;;;;;;;;;;7.94;71.81;99249.47;1088069;47;987;-81
2024/01/06 19:00:40;;;;;;;;;;;;;;;7.97;71.67;99243.88;1088271;51;960;-79
2024/01/06 19:01:43;;;;;;;;;;;;;;;8.01;71.65;99245.22;1088484;54;1329;-78
2024/01/06 19:08:30;;;;;;;;;;;;;;;7.88;71.74;99256.22;1087745;54;1188;-79
2024/01/06 19:09:35;;;;;;;;;;;;;;;7.78;72.21;99256.28;1088356;54;895;-82
2024/01/06 19:12:14;;;;;;;;;;;;;;;7.85;72.42;99261.81;1088062;47;1428;-80
2024/01/06 19:13:31;;;;;;;;;;;;;;;7.81;72.51;99255.13;1088425;54;949;-79
2024/01/06 19:17:11;;;;;;;;;;;;;;;7.80;72.35;99262.25;1087537;54;2033;-82
2024/01/06 19:18:15;;;;;;;;;;;;;;;7.93;72.19;99263.75;1088209;47;954;-81
2024/01/06 19:19:21;;;;;;;;;;;;;;;8.00;71.71;99264.84;1088132;54;966;-80
2024/01/06 19:23:47;;;;;;;;;;;;;;;7.95;71.73;99261.81;1088574;54;779;-78
2024/01/06 19:24:48;;;;;;;;;;;;;;;7.94;71.77;99254.78;1088491;54;980;-81
2024/01/06 19:25:55;;;;;;;;;;;;;;;7.93;71.62;99263.75;1088351;54;847;-79
2024/01/06 19:26:58;;;;;;;;;;;;;;;7.95;71.56;99261.81;1088151;47;938;-81
2024/01/06 19:28:02;;;;;;;;;;;;;;;7.97;71.81;99262.50;1088382;54;947;-80
2024/01/06 19:29:03;;;;;;;;;;;;;;;7.92;71.71;99265.59;1088028;47;902;-80
2024/01/06 19:30:12;;;;;;;;;;;;;;;7.99;71.81;99263.16;1087980;47;901;-77
2024/01/06 19:31:13;;;;;;;;;;;;;;;8.00;71.46;99261.34;1088085;47;985;-82
2024/01/06 19:33:44;;;;;;;;;;;;;;;7.90;71.75;99264.03;1088266;54;1118;-80
2024/01/06 19:36:20;;;;;;;;;;;;;;;7.93;71.63;99280.59;1088253;46;936;-78
2024/01/06 19:37:21;;;;;;;;;;;;;;;7.96;71.53;99268.81;1088318;54;935;-79
2024/01/06 19:38:36;;;;;;;;;;;;;;;7.97;71.67;99271.31;1088354;47;896;-79
2024/01/06 19:39:37;;;;;;;;;;;;;;;8.00;71.79;99272.81;1088264;54;913;-81
2024/01/06 19:40:52;;;;;;;;;;;;;;;8.00;71.52;99259.53;1088072;54;957;-77
2024/01/06 19:41:53;;;;;;;;;;;;;;;7.92;71.74;99265.59;1088001;47;1237;-81
2024/01/06 19:42:57;;;;;;;;;;;;;;;7.85;71.64;99269.81;1088109;47;1848;-82
2024/01/06 19:44:01;;;;;;;;;;;;;;;7.91;71.74;99266.59;1088189;54;999;-83
2024/01/06 19:45:07;;;;;;;;;;;;;;;7.89;71.83;99265.88;1088261;54;935;-82
2024/01/06 19:46:10;;;;;;;;;;;;;;;7.91;71.69;99269.25;1088032;47;836;-81
2024/01/06 19:47:13;;;;;;;;;;;;;;;7.92;71.73;99262.94;1088142;47;877;-81
2024/01/06 19:48:15;;;;;;;;;;;;;;;7.89;71.67;99265.88;1088243;47;996;-81
2024/01/06 19:49:28;;;;;;;;;;;;;;;7.86;71.91;99266.16;1088179;54;1024;-80
2024/01/06 19:50:29;;;;;;;;;;;;;;;7.92;71.72;99273.59;1088335;54;915;-79
2024/01/06 19:51:32;;;;;;;;;;;;;;;7.86;71.79;99266.16;1088229;54;1322;-82
2024/01/06 19:52:33;;;;;;;;;;;;;;;7.82;72.19;99272.78;1088308;54;1033;-80
2024/01/06 19:53:39;;;;;;;;;;;;;;;7.84;71.90;99269.97;1087990;54;1022;-81
2024/01/06 19:54:40;;;;;;;;;;;;;;;7.90;71.56;99270.22;1088069;47;919;-80
2024/01/06 19:55:43;;;;;;;;;;;;;;;7.90;71.77;99264.91;1088191;54;1118;-80
2024/01/06 19:56:44;;;;;;;;;;;;;;;7.91;71.72;99266.59;1087983;54;999;-80
2024/01/06 19:58:13;;;;;;;;;;;;;;;7.87;71.94;99265.19;1087968;54;1025;-79
2024/01/06 19:59:22;;;;;;;;;;;;;;;7.86;72.01;99268.81;1088385;46;904;-80
2024/01/06 20:00:26;;;;;;;;;;;;;;;7.80;72.16;99270.25;1087939;47;998;-81
2024/01/06 20:01:27;;;;;;;;;;;;;;;7.74;72.46;99267.34;1088015;47;1244;-83
2024/01/06 20:02:46;;;;;;;;;;;;;;;7.77;72.33;99259.06;1087867;47;948;-79
2024/01/06 20:03:47;;;;;;;;;;;;;;;7.90;72.04;99256.91;1088111;54;1012;-81
2024/01/06 20:04:53;;;;;;;;;;;;;;;7.86;72.03;99260.84;1088101;47;1105;-80
2024/01/06 20:05:53;;;;;;;;;;;;;;;7.92;72.16;99262.94;1088061;54;925;-80
2024/01/06 20:06:57;;;;;;;;;;;;;;;7.94;71.82;99265.44;1087905;54;1025;-80
2024/01/06 20:07:58;;;;;;;;;;;;;;;7.97;71.60;99267.81;1087894;54;962;-81
2024/01/06 20:09:09;;;;;;;;;;;;;;;7.92;71.64;99273.59;1088019;47;894;-81
2024/01/06 20:12:28;;;;;;;;;;;;;;;7.82;71.89;99272.78;1088482;54;671;-78
2024/01/06 20:13:32;;;;;;;;;;;;;;;7.77;71.92;99277.69;1088247;47;901;-78
2024/01/06 20:14:34;;;;;;;;;;;;;;;7.73;72.39;99269.16;1088506;47;949;-80
2024/01/06 20:15:38;;;;;;;;;;;;;;;7.75;72.33;99269.00;1088346;46;909;-80
2024/01/06 20:16:38;;;;;;;;;;;;;;;7.76;72.47;99265.34;1088148;46;1001;-79
2024/01/06 20:17:49;;;;;;;;;;;;;;;7.80;72.40;99269.41;1088527;54;1067;-81
2024/01/06 20:18:50;;;;;;;;;;;;;;;7.81;72.28;99276.41;1088702;54;1218;-80
2024/01/06 20:20:02;;;;;;;;;;;;;;;7.81;72.11;99265.78;1088914;54;946;-81
2024/01/06 20:21:04;;;;;;;;;;;;;;;7.80;72.51;99264.09;1088602;54;954;-79
2024/01/06 20:22:17;;;;;;;;;;;;;;;7.81;72.30;99271.94;1088649;46;1411;-81
2024/01/06 20:23:24;;;;;;;;;;;;;;;7.79;72.22;99260.59;1088534;46;1846;-78
2024/01/06 20:24:27;;;;;;;;;;;;;;;7.81;72.28;99268.44;1088431;54;986;-79
2024/01/06 20:25:28;;;;;;;;;;;;;;;7.74;72.40;99267.34;1088319;47;915;-79
2024/01/06 20:26:31;;;;;;;;;;;;;;;7.77;72.35;99267.91;1088250;54;967;-78
2024/01/06 20:27:33;;;;;;;;;;;;;;;7.78;72.28;99269.56;1088207;54;1173;-77
2024/01/06 20:28:38;;;;;;;;;;;;;;;7.73;72.56;99271.81;1088157;47;946;-79
2024/01/06 20:31:55;;;;;;;;;;;;;;;7.80;72.44;99274.75;1088220;54;1311;-79
2024/01/06 20:32:56;;;;;;;;;;;;;;;7.86;72.42;99268.81;1088298;46;890;-77
2024/01/06 20:33:59;;;;;;;;;;;;;;;7.76;72.58;99268.03;1088371;54;946;-80
2024/01/06 20:35:03;;;;;;;;;;;;;;;7.80;72.61;99272.91;1088344;46;943;-78
2024/01/06 20:36:07;;;;;;;;;;;;;;;7.84;72.24;99275.28;1088287;46;966;-81
2024/01/06 20:37:08;;;;;;;;;;;;;;;7.76;72.40;99268.88;1088492;46;956;-81
2024/01/06 20:38:12;;;;;;;;;;;;;;;7.71;72.45;99272.97;1088540;46;978;-79
2024/01/06 20:39:13;;;;;;;;;;;;;;;7.67;72.56;99274.22;1088491;46;964;-78
2024/01/06 20:40:17;;;;;;;;;;;;;;;7.67;72.62;99268.91;1088173;47;933;-78
2024/01/06 20:41:17;;;;;;;;;;;;;;;7.62;72.60;99272.84;1088219;54;966;-77
2024/01/06 20:42:21;;;;;;;;;;;;;;;7.57;72.73;99271.59;1088206;54;1236;-81
2024/01/06 20:43:22;;;;;;;;;;;;;;;7.62;72.79;99267.53;1088238;47;1849;-81
2024/01/06 20:44:26;;;;;;;;;;;;;;;7.57;72.70;99269.75;1088463;54;928;-79
2024/01/06 20:45:27;;;;;;;;;;;;;;;7.56;72.93;99267.25;1088156;46;1003;-79
2024/01/06 20:46:34;;;;;;;;;;;;;;;7.54;72.96;99277.19;1088501;54;1106;-80
2024/01/06 20:47:34;;;;;;;;;;;;;;;7.62;73.02;99272.00;1088078;47;960;-77
2024/01/06 20:48:39;;;;;;;;;;;;;;;7.61;72.82;99276.47;1088112;54;922;-79
2024/01/06 20:49:41;;;;;;;;;;;;;;;7.53;73.33;99268.38;1088097;47;1062;-79
2024/01/06 20:50:47;;;;;;;;;;;;;;;7.60;73.16;99272.16;1088189;54;929;-79
2024/01/06 20:51:51;;;;;;;;;;;;;;;7.59;73.26;99273.13;1088148;54;1442;-80
2024/01/06 20:52:54;;;;;;;;;;;;;;;7.67;72.92;99264.44;1088148;47;958;-79
2024/01/06 20:53:57;;;;;;;;;;;;;;;7.60;73.36;99266.81;1088384;46;1176;-80